sensor_id;sensor_type;location;lat;lon;timestamp;P1;durP1;ratioP1;P2;durP2;ratioP2
33491;SDS011;20010;51.488;7.232;2023-04-06T00:00:48;14.65;;;13.25;;
33491;SDS011;20010;51.488;7.232;2023-04-06T00:03:15;14.75;;;13.35;;
33491;SDS011;20010;51.488;7.232;2023-04-06T00:05:42;14.68;;;13.25;;
33491;SDS011;20010;51.488;7.232;2023-04-06T00:08:11;17.73;;;14.45;;
33491;SDS011;20010;51.488;7.232;2023-04-06T00:10:37;15.55;;;13.93;;
33491;SDS011;20010;51.488;7.232;2023-04-06T00:13:05;16.80;;;15.00;;
33491;SDS011;20010;51.488;7.232;2023-04-06T00:15:32;16.77;;;13.63;;
33491;SDS011;20010;51.488;7.232;2023-04-06T00:17:58;15.07;;;13.73;;
33491;SDS011;20010;51.488;7.232;2023-04-06T00:20:25;14.90;;;13.45;;
33491;SDS011;20010;51.488;7.232;2023-04-06T00:22:52;14.55;;;13.05;;
33491;SDS011;20010;51.488;7.232;2023-04-06T00:25:18;14.68;;;13.18;;
33491;SDS011;20010;51.488;7.232;2023-04-06T00:27:45;15.02;;;13.48;;
33491;SDS011;20010;51.488;7.232;2023-04-06T00:30:11;14.40;;;13.07;;
33491;SDS011;20010;51.488;7.232;2023-04-06T00:32:38;14.60;;;13.20;;
33491;SDS011;20010;51.488;7.232;2023-04-06T00:35:05;15.95;;;14.43;;
33491;SDS011;20010;51.488;7.232;2023-04-06T00:37:32;14.23;;;12.77;;
33491;SDS011;20010;51.488;7.232;2023-04-06T00:39:58;16.38;;;14.68;;
33491;SDS011;20010;51.488;7.232;2023-04-06T00:42:25;15.20;;;12.82;;
33491;SDS011;20010;51.488;7.232;2023-04-06T00:44:57;14.93;;;13.35;;
33491;SDS011;20010;51.488;7.232;2023-04-06T00:47:25;16.42;;;14.30;;
33491;SDS011;20010;51.488;7.232;2023-04-06T00:49:53;15.52;;;13.90;;
33491;SDS011;20010;51.488;7.232;2023-04-06T00:52:20;14.57;;;13.20;;
33491;SDS011;20010;51.488;7.232;2023-04-06T00:54:47;15.10;;;13.10;;
33491;SDS011;20010;51.488;7.232;2023-04-06T00:57:14;14.77;;;13.27;;
33491;SDS011;20010;51.488;7.232;2023-04-06T00:59:41;14.90;;;13.57;;
33491;SDS011;20010;51.488;7.232;2023-04-06T01:02:08;13.55;;;12.43;;
33491;SDS011;20010;51.488;7.232;2023-04-06T01:04:35;14.60;;;13.30;;
33491;SDS011;20010;51.488;7.232;2023-04-06T01:07:02;15.52;;;13.73;;
33491;SDS011;20010;51.488;7.232;2023-04-06T01:09:29;15.10;;;13.60;;
33491;SDS011;20010;51.488;7.232;2023-04-06T01:11:56;14.57;;;13.27;;
33491;SDS011;20010;51.488;7.232;2023-04-06T01:14:24;15.02;;;13.65;;
33491;SDS011;20010;51.488;7.232;2023-04-06T01:16:51;14.45;;;13.23;;
33491;SDS011;20010;51.488;7.232;2023-04-06T01:19:18;16.77;;;15.18;;
33491;SDS011;20010;51.488;7.232;2023-04-06T01:21:44;14.85;;;13.57;;
33491;SDS011;20010;51.488;7.232;2023-04-06T01:24:11;14.90;;;13.63;;
33491;SDS011;20010;51.488;7.232;2023-04-06T01:26:38;15.95;;;13.90;;
33491;SDS011;20010;51.488;7.232;2023-04-06T01:29:05;15.25;;;13.75;;
33491;SDS011;20010;51.488;7.232;2023-04-06T01:31:32;14.18;;;12.95;;
33491;SDS011;20010;51.488;7.232;2023-04-06T01:33:59;15.75;;;13.60;;
33491;SDS011;20010;51.488;7.232;2023-04-06T01:36:25;14.02;;;12.75;;
33491;SDS011;20010;51.488;7.232;2023-04-06T01:38:52;15.45;;;13.85;;
33491;SDS011;20010;51.488;7.232;2023-04-06T01:41:19;16.27;;;14.75;;
33491;SDS011;20010;51.488;7.232;2023-04-06T01:43:47;14.80;;;13.45;;
33491;SDS011;20010;51.488;7.232;2023-04-06T01:46:13;15.32;;;13.77;;
33491;SDS011;20010;51.488;7.232;2023-04-06T01:48:40;15.43;;;13.82;;
33491;SDS011;20010;51.488;7.232;2023-04-06T01:51:07;16.58;;;13.82;;
33491;SDS011;20010;51.488;7.232;2023-04-06T01:53:34;14.82;;;13.50;;
33491;SDS011;20010;51.488;7.232;2023-04-06T01:56:01;17.13;;;15.32;;
33491;SDS011;20010;51.488;7.232;2023-04-06T01:58:27;14.65;;;13.45;;
33491;SDS011;20010;51.488;7.232;2023-04-06T02:00:54;14.32;;;12.30;;
33491;SDS011;20010;51.488;7.232;2023-04-06T02:03:20;13.75;;;12.68;;
33491;SDS011;20010;51.488;7.232;2023-04-06T02:05:47;15.05;;;13.65;;
33491;SDS011;20010;51.488;7.232;2023-04-06T02:08:14;13.65;;;12.52;;
33491;SDS011;20010;51.488;7.232;2023-04-06T02:10:40;17.25;;;13.82;;
33491;SDS011;20010;51.488;7.232;2023-04-06T02:13:07;14.45;;;13.07;;
33491;SDS011;20010;51.488;7.232;2023-04-06T02:15:33;14.82;;;13.52;;
33491;SDS011;20010;51.488;7.232;2023-04-06T02:18:00;14.60;;;13.20;;
33491;SDS011;20010;51.488;7.232;2023-04-06T02:20:26;13.30;;;11.90;;
33491;SDS011;20010;51.488;7.232;2023-04-06T02:22:53;13.90;;;12.80;;
33491;SDS011;20010;51.488;7.232;2023-04-06T02:25:20;13.23;;;11.93;;
33491;SDS011;20010;51.488;7.232;2023-04-06T02:27:47;13.85;;;12.55;;
33491;SDS011;20010;51.488;7.232;2023-04-06T02:30:14;13.98;;;12.68;;
33491;SDS011;20010;51.488;7.232;2023-04-06T02:32:40;14.00;;;12.60;;
33491;SDS011;20010;51.488;7.232;2023-04-06T02:35:07;13.93;;;12.65;;
33491;SDS011;20010;51.488;7.232;2023-04-06T02:37:34;13.65;;;12.27;;
33491;SDS011;20010;51.488;7.232;2023-04-06T02:40:00;15.85;;;13.05;;
33491;SDS011;20010;51.488;7.232;2023-04-06T02:42:27;13.05;;;11.95;;
33491;SDS011;20010;51.488;7.232;2023-04-06T02:44:55;14.02;;;12.82;;
33491;SDS011;20010;51.488;7.232;2023-04-06T02:47:22;13.40;;;12.10;;
33491;SDS011;20010;51.488;7.232;2023-04-06T02:49:48;14.00;;;12.57;;
33491;SDS011;20010;51.488;7.232;2023-04-06T02:52:15;14.35;;;12.98;;
33491;SDS011;20010;51.488;7.232;2023-04-06T02:54:44;13.77;;;12.52;;
33491;SDS011;20010;51.488;7.232;2023-04-06T02:57:10;14.38;;;12.98;;
33491;SDS011;20010;51.488;7.232;2023-04-06T02:59:37;14.23;;;12.73;;
33491;SDS011;20010;51.488;7.232;2023-04-06T03:02:03;15.60;;;14.18;;
33491;SDS011;20010;51.488;7.232;2023-04-06T03:04:30;13.77;;;12.27;;
33491;SDS011;20010;51.488;7.232;2023-04-06T03:06:56;14.68;;;13.18;;
33491;SDS011;20010;51.488;7.232;2023-04-06T03:09:26;13.85;;;12.50;;
33491;SDS011;20010;51.488;7.232;2023-04-06T03:11:53;13.93;;;12.82;;
33491;SDS011;20010;51.488;7.232;2023-04-06T03:14:20;14.32;;;13.23;;
33491;SDS011;20010;51.488;7.232;2023-04-06T03:16:49;13.57;;;12.20;;
33491;SDS011;20010;51.488;7.232;2023-04-06T03:19:16;14.50;;;13.30;;
33491;SDS011;20010;51.488;7.232;2023-04-06T03:21:43;15.60;;;13.40;;
33491;SDS011;20010;51.488;7.232;2023-04-06T03:24:09;13.02;;;12.00;;
33491;SDS011;20010;51.488;7.232;2023-04-06T03:26:36;13.15;;;11.85;;
33491;SDS011;20010;51.488;7.232;2023-04-06T03:29:02;13.45;;;12.25;;
33491;SDS011;20010;51.488;7.232;2023-04-06T03:31:29;14.55;;;12.70;;
33491;SDS011;20010;51.488;7.232;2023-04-06T03:33:56;13.48;;;12.18;;
33491;SDS011;20010;51.488;7.232;2023-04-06T03:36:23;13.80;;;12.50;;
33491;SDS011;20010;51.488;7.232;2023-04-06T03:38:49;14.65;;;13.35;;
33491;SDS011;20010;51.488;7.232;2023-04-06T03:41:16;16.98;;;12.70;;
33491;SDS011;20010;51.488;7.232;2023-04-06T03:43:42;13.55;;;12.25;;
33491;SDS011;20010;51.488;7.232;2023-04-06T03:46:09;14.18;;;12.88;;
33491;SDS011;20010;51.488;7.232;2023-04-06T03:48:36;14.27;;;12.80;;
33491;SDS011;20010;51.488;7.232;2023-04-06T03:51:02;13.68;;;12.32;;
33491;SDS011;20010;51.488;7.232;2023-04-06T03:53:29;15.13;;;13.55;;
33491;SDS011;20010;51.488;7.232;2023-04-06T03:55:55;13.85;;;12.50;;
33491;SDS011;20010;51.488;7.232;2023-04-06T03:58:22;13.43;;;12.15;;
33491;SDS011;20010;51.488;7.232;2023-04-06T04:00:48;13.88;;;12.45;;
33491;SDS011;20010;51.488;7.232;2023-04-06T04:03:15;14.30;;;12.98;;
33491;SDS011;20010;51.488;7.232;2023-04-06T04:05:42;13.82;;;12.70;;
33491;SDS011;20010;51.488;7.232;2023-04-06T04:08:09;14.73;;;13.43;;
33491;SDS011;20010;51.488;7.232;2023-04-06T04:10:36;13.65;;;12.40;;
33491;SDS011;20010;51.488;7.232;2023-04-06T04:13:02;14.77;;;13.30;;
33491;SDS011;20010;51.488;7.232;2023-04-06T04:15:29;15.02;;;13.57;;
33491;SDS011;20010;51.488;7.232;2023-04-06T04:17:55;15.38;;;13.80;;
33491;SDS011;20010;51.488;7.232;2023-04-06T04:20:22;14.85;;;12.90;;
33491;SDS011;20010;51.488;7.232;2023-04-06T04:22:49;14.15;;;12.65;;
33491;SDS011;20010;51.488;7.232;2023-04-06T04:25:15;14.73;;;12.93;;
33491;SDS011;20010;51.488;7.232;2023-04-06T04:27:42;14.02;;;12.60;;
33491;SDS011;20010;51.488;7.232;2023-04-06T04:30:08;13.27;;;12.18;;
33491;SDS011;20010;51.488;7.232;2023-04-06T04:32:35;13.38;;;11.98;;
33491;SDS011;20010;51.488;7.232;2023-04-06T04:35:02;13.38;;;11.98;;
33491;SDS011;20010;51.488;7.232;2023-04-06T04:37:29;12.73;;;11.52;;
33491;SDS011;20010;51.488;7.232;2023-04-06T04:39:55;13.35;;;12.05;;
33491;SDS011;20010;51.488;7.232;2023-04-06T04:42:22;12.43;;;11.30;;
33491;SDS011;20010;51.488;7.232;2023-04-06T04:44:48;13.50;;;11.63;;
33491;SDS011;20010;51.488;7.232;2023-04-06T04:47:15;16.35;;;13.23;;
33491;SDS011;20010;51.488;7.232;2023-04-06T04:49:41;18.83;;;13.38;;
33491;SDS011;20010;51.488;7.232;2023-04-06T04:52:08;12.48;;;11.35;;
33491;SDS011;20010;51.488;7.232;2023-04-06T04:54:34;14.30;;;12.98;;
33491;SDS011;20010;51.488;7.232;2023-04-06T04:57:01;13.68;;;11.88;;
33491;SDS011;20010;51.488;7.232;2023-04-06T04:59:28;11.80;;;10.90;;
33491;SDS011;20010;51.488;7.232;2023-04-06T05:01:56;13.57;;;12.38;;
33491;SDS011;20010;51.488;7.232;2023-04-06T05:04:22;13.85;;;12.45;;
33491;SDS011;20010;51.488;7.232;2023-04-06T05:06:50;13.60;;;11.85;;
33491;SDS011;20010;51.488;7.232;2023-04-06T05:09:16;13.70;;;12.27;;
33491;SDS011;20010;51.488;7.232;2023-04-06T05:11:43;13.60;;;12.40;;
33491;SDS011;20010;51.488;7.232;2023-04-06T05:14:10;13.90;;;12.18;;
33491;SDS011;20010;51.488;7.232;2023-04-06T05:16:37;18.05;;;12.48;;
33491;SDS011;20010;51.488;7.232;2023-04-06T05:19:03;13.30;;;12.07;;
33491;SDS011;20010;51.488;7.232;2023-04-06T05:21:30;12.73;;;11.63;;
33491;SDS011;20010;51.488;7.232;2023-04-06T05:23:57;14.25;;;12.25;;
33491;SDS011;20010;51.488;7.232;2023-04-06T05:26:24;14.32;;;12.93;;
33491;SDS011;20010;51.488;7.232;2023-04-06T05:28:51;12.45;;;11.32;;
33491;SDS011;20010;51.488;7.232;2023-04-06T05:31:18;13.80;;;12.32;;
33491;SDS011;20010;51.488;7.232;2023-04-06T05:33:44;12.23;;;11.07;;
33491;SDS011;20010;51.488;7.232;2023-04-06T05:36:11;12.55;;;11.27;;
33491;SDS011;20010;51.488;7.232;2023-04-06T05:38:40;13.07;;;11.75;;
33491;SDS011;20010;51.488;7.232;2023-04-06T05:41:07;12.85;;;11.55;;
33491;SDS011;20010;51.488;7.232;2023-04-06T05:43:33;13.30;;;12.10;;
33491;SDS011;20010;51.488;7.232;2023-04-06T05:46:00;12.43;;;10.75;;
33491;SDS011;20010;51.488;7.232;2023-04-06T05:48:27;14.07;;;12.07;;
33491;SDS011;20010;51.488;7.232;2023-04-06T05:50:54;12.68;;;11.40;;
33491;SDS011;20010;51.488;7.232;2023-04-06T05:53:20;12.82;;;11.23;;
33491;SDS011;20010;51.488;7.232;2023-04-06T05:55:47;14.38;;;12.10;;
33491;SDS011;20010;51.488;7.232;2023-04-06T05:58:14;13.13;;;11.73;;
33491;SDS011;20010;51.488;7.232;2023-04-06T06:00:41;14.98;;;13.60;;
33491;SDS011;20010;51.488;7.232;2023-04-06T06:03:09;14.43;;;12.07;;
33491;SDS011;20010;51.488;7.232;2023-04-06T06:05:36;14.02;;;12.57;;
33491;SDS011;20010;51.488;7.232;2023-04-06T06:08:02;12.27;;;11.27;;
33491;SDS011;20010;51.488;7.232;2023-04-06T06:10:29;12.73;;;11.63;;
33491;SDS011;20010;51.488;7.232;2023-04-06T06:12:56;12.68;;;11.50;;
33491;SDS011;20010;51.488;7.232;2023-04-06T06:15:22;13.18;;;12.00;;
33491;SDS011;20010;51.488;7.232;2023-04-06T06:17:49;13.07;;;11.75;;
33491;SDS011;20010;51.488;7.232;2023-04-06T06:20:16;12.48;;;11.20;;
33491;SDS011;20010;51.488;7.232;2023-04-06T06:22:42;12.65;;;11.63;;
33491;SDS011;20010;51.488;7.232;2023-04-06T06:25:09;12.75;;;11.68;;
33491;SDS011;20010;51.488;7.232;2023-04-06T06:27:36;13.32;;;12.00;;
33491;SDS011;20010;51.488;7.232;2023-04-06T06:30:03;14.20;;;12.80;;
33491;SDS011;20010;51.488;7.232;2023-04-06T06:32:32;12.63;;;11.52;;
33491;SDS011;20010;51.488;7.232;2023-04-06T06:35:01;16.75;;;12.43;;
33491;SDS011;20010;51.488;7.232;2023-04-06T06:37:27;11.98;;;10.98;;
33491;SDS011;20010;51.488;7.232;2023-04-06T06:39:56;12.40;;;11.40;;
33491;SDS011;20010;51.488;7.232;2023-04-06T06:42:23;13.82;;;12.43;;
33491;SDS011;20010;51.488;7.232;2023-04-06T06:44:50;12.48;;;11.30;;
33491;SDS011;20010;51.488;7.232;2023-04-06T06:47:17;12.13;;;10.82;;
33491;SDS011;20010;51.488;7.232;2023-04-06T06:49:44;11.02;;;10.02;;
33491;SDS011;20010;51.488;7.232;2023-04-06T06:52:11;12.25;;;11.18;;
33491;SDS011;20010;51.488;7.232;2023-04-06T06:54:37;12.45;;;11.35;;
33491;SDS011;20010;51.488;7.232;2023-04-06T06:57:04;12.43;;;11.40;;
33491;SDS011;20010;51.488;7.232;2023-04-06T06:59:30;14.93;;;13.52;;
33491;SDS011;20010;51.488;7.232;2023-04-06T07:01:57;14.07;;;11.57;;
33491;SDS011;20010;51.488;7.232;2023-04-06T07:04:24;13.57;;;11.32;;
33491;SDS011;20010;51.488;7.232;2023-04-06T07:06:51;13.50;;;12.27;;
33491;SDS011;20010;51.488;7.232;2023-04-06T07:09:18;12.75;;;11.45;;
33491;SDS011;20010;51.488;7.232;2023-04-06T07:11:45;11.30;;;10.05;;
33491;SDS011;20010;51.488;7.232;2023-04-06T07:14:12;11.00;;;10.15;;
33491;SDS011;20010;51.488;7.232;2023-04-06T07:16:38;12.52;;;11.40;;
33491;SDS011;20010;51.488;7.232;2023-04-06T07:19:05;12.57;;;11.30;;
33491;SDS011;20010;51.488;7.232;2023-04-06T07:21:32;10.82;;;10.02;;
33491;SDS011;20010;51.488;7.232;2023-04-06T07:23:58;11.70;;;10.70;;
33491;SDS011;20010;51.488;7.232;2023-04-06T07:26:25;13.48;;;12.10;;
33491;SDS011;20010;51.488;7.232;2023-04-06T07:28:51;12.95;;;11.68;;
33491;SDS011;20010;51.488;7.232;2023-04-06T07:31:18;11.85;;;10.90;;
33491;SDS011;20010;51.488;7.232;2023-04-06T07:33:45;11.73;;;10.82;;
33491;SDS011;20010;51.488;7.232;2023-04-06T07:36:13;12.45;;;11.38;;
33491;SDS011;20010;51.488;7.232;2023-04-06T07:38:39;11.52;;;10.63;;
33491;SDS011;20010;51.488;7.232;2023-04-06T07:41:06;12.05;;;11.02;;
33491;SDS011;20010;51.488;7.232;2023-04-06T07:43:32;11.77;;;10.82;;
33491;SDS011;20010;51.488;7.232;2023-04-06T07:45:59;12.40;;;11.40;;
33491;SDS011;20010;51.488;7.232;2023-04-06T07:48:26;12.55;;;11.30;;
33491;SDS011;20010;51.488;7.232;2023-04-06T07:51:00;12.60;;;11.25;;
33491;SDS011;20010;51.488;7.232;2023-04-06T07:53:30;13.68;;;12.45;;
33491;SDS011;20010;51.488;7.232;2023-04-06T07:56:00;12.20;;;11.27;;
33491;SDS011;20010;51.488;7.232;2023-04-06T07:58:26;13.27;;;12.00;;
33491;SDS011;20010;51.488;7.232;2023-04-06T08:00:53;13.35;;;12.25;;
33491;SDS011;20010;51.488;7.232;2023-04-06T08:03:20;12.15;;;11.25;;
33491;SDS011;20010;51.488;7.232;2023-04-06T08:08:19;13.75;;;12.52;;
33491;SDS011;20010;51.488;7.232;2023-04-06T08:10:47;12.75;;;11.68;;
33491;SDS011;20010;51.488;7.232;2023-04-06T08:13:14;13.52;;;12.38;;
33491;SDS011;20010;51.488;7.232;2023-04-06T08:15:42;12.98;;;11.52;;
33491;SDS011;20010;51.488;7.232;2023-04-06T08:18:09;12.07;;;11.27;;
33491;SDS011;20010;51.488;7.232;2023-04-06T08:20:35;13.15;;;12.05;;
33491;SDS011;20010;51.488;7.232;2023-04-06T08:23:02;13.68;;;12.57;;
33491;SDS011;20010;51.488;7.232;2023-04-06T08:25:29;13.38;;;11.98;;
33491;SDS011;20010;51.488;7.232;2023-04-06T08:27:55;14.10;;;12.80;;
33491;SDS011;20010;51.488;7.232;2023-04-06T08:30:22;14.52;;;13.25;;
33491;SDS011;20010;51.488;7.232;2023-04-06T08:32:49;14.18;;;12.98;;
33491;SDS011;20010;51.488;7.232;2023-04-06T08:35:16;13.93;;;12.57;;
33491;SDS011;20010;51.488;7.232;2023-04-06T08:37:43;13.95;;;12.70;;
33491;SDS011;20010;51.488;7.232;2023-04-06T08:40:09;14.40;;;13.00;;
33491;SDS011;20010;51.488;7.232;2023-04-06T08:42:39;14.15;;;12.90;;
33491;SDS011;20010;51.488;7.232;2023-04-06T08:45:09;13.80;;;12.60;;
33491;SDS011;20010;51.488;7.232;2023-04-06T08:47:36;14.60;;;13.23;;
33491;SDS011;20010;51.488;7.232;2023-04-06T08:50:03;15.25;;;13.63;;
33491;SDS011;20010;51.488;7.232;2023-04-06T08:52:31;14.75;;;13.23;;
33491;SDS011;20010;51.488;7.232;2023-04-06T08:54:58;13.73;;;12.52;;
33491;SDS011;20010;51.488;7.232;2023-04-06T08:57:25;14.88;;;13.48;;
33491;SDS011;20010;51.488;7.232;2023-04-06T08:59:52;15.13;;;13.63;;
33491;SDS011;20010;51.488;7.232;2023-04-06T09:02:20;13.10;;;11.98;;
33491;SDS011;20010;51.488;7.232;2023-04-06T09:04:48;14.02;;;12.73;;
33491;SDS011;20010;51.488;7.232;2023-04-06T09:07:16;14.52;;;13.13;;
33491;SDS011;20010;51.488;7.232;2023-04-06T09:09:43;15.90;;;14.25;;
33491;SDS011;20010;51.488;7.232;2023-04-06T09:14:53;14.98;;;13.55;;
33491;SDS011;20010;51.488;7.232;2023-04-06T09:17:28;15.20;;;13.90;;
33491;SDS011;20010;51.488;7.232;2023-04-06T09:19:56;14.98;;;13.77;;
33491;SDS011;20010;51.488;7.232;2023-04-06T09:22:23;15.43;;;13.98;;
33491;SDS011;20010;51.488;7.232;2023-04-06T09:24:53;15.18;;;13.85;;
33491;SDS011;20010;51.488;7.232;2023-04-06T09:27:30;16.50;;;15.02;;
33491;SDS011;20010;51.488;7.232;2023-04-06T09:30:08;16.23;;;14.60;;
33491;SDS011;20010;51.488;7.232;2023-04-06T09:32:46;15.60;;;14.30;;
33491;SDS011;20010;51.488;7.232;2023-04-06T09:35:14;16.52;;;14.93;;
33491;SDS011;20010;51.488;7.232;2023-04-06T09:37:42;18.45;;;16.58;;
33491;SDS011;20010;51.488;7.232;2023-04-06T09:40:09;17.00;;;15.35;;
33491;SDS011;20010;51.488;7.232;2023-04-06T09:42:36;16.60;;;15.18;;
33491;SDS011;20010;51.488;7.232;2023-04-06T09:45:03;16.05;;;14.48;;
33491;SDS011;20010;51.488;7.232;2023-04-06T09:47:30;16.25;;;14.65;;
33491;SDS011;20010;51.488;7.232;2023-04-06T09:49:58;17.60;;;15.77;;
33491;SDS011;20010;51.488;7.232;2023-04-06T09:52:32;17.55;;;15.93;;
33491;SDS011;20010;51.488;7.232;2023-04-06T09:55:02;18.17;;;16.38;;
33491;SDS011;20010;51.488;7.232;2023-04-06T10:05:08;17.80;;;15.85;;
33491;SDS011;20010;51.488;7.232;2023-04-06T10:07:37;16.95;;;15.20;;
33491;SDS011;20010;51.488;7.232;2023-04-06T10:10:25;18.08;;;16.30;;
33491;SDS011;20010;51.488;7.232;2023-04-06T10:12:52;16.88;;;15.38;;
33491;SDS011;20010;51.488;7.232;2023-04-06T10:15:19;17.30;;;15.70;;
33491;SDS011;20010;51.488;7.232;2023-04-06T10:17:48;18.17;;;16.58;;
33491;SDS011;20010;51.488;7.232;2023-04-06T10:20:22;18.05;;;16.20;;
33491;SDS011;20010;51.488;7.232;2023-04-06T10:25:27;18.67;;;16.98;;
33491;SDS011;20010;51.488;7.232;2023-04-06T10:30:43;18.83;;;17.00;;
33491;SDS011;20010;51.488;7.232;2023-04-06T10:33:13;20.17;;;18.38;;
33491;SDS011;20010;51.488;7.232;2023-04-06T10:35:46;19.67;;;17.65;;
33491;SDS011;20010;51.488;7.232;2023-04-06T10:38:13;19.58;;;17.77;;
33491;SDS011;20010;51.488;7.232;2023-04-06T10:40:41;19.65;;;17.70;;
33491;SDS011;20010;51.488;7.232;2023-04-06T10:43:22;19.25;;;17.55;;
33491;SDS011;20010;51.488;7.232;2023-04-06T10:45:55;19.38;;;17.52;;
33491;SDS011;20010;51.488;7.232;2023-04-06T10:48:23;19.60;;;17.65;;
33491;SDS011;20010;51.488;7.232;2023-04-06T10:50:51;19.27;;;17.58;;
33491;SDS011;20010;51.488;7.232;2023-04-06T10:53:24;18.08;;;16.48;;
33491;SDS011;20010;51.488;7.232;2023-04-06T10:55:52;18.63;;;17.13;;
33491;SDS011;20010;51.488;7.232;2023-04-06T10:58:24;18.10;;;16.60;;
33491;SDS011;20010;51.488;7.232;2023-04-06T11:00:51;19.65;;;17.85;;
33491;SDS011;20010;51.488;7.232;2023-04-06T11:03:18;20.88;;;18.75;;
33491;SDS011;20010;51.488;7.232;2023-04-06T11:05:45;20.10;;;18.20;;
33491;SDS011;20010;51.488;7.232;2023-04-06T11:08:26;20.50;;;18.48;;
33491;SDS011;20010;51.488;7.232;2023-04-06T11:13:37;20.17;;;18.27;;
33491;SDS011;20010;51.488;7.232;2023-04-06T11:16:05;21.67;;;19.58;;
33491;SDS011;20010;51.488;7.232;2023-04-06T11:18:32;22.60;;;20.25;;
33491;SDS011;20010;51.488;7.232;2023-04-06T11:20:58;21.55;;;19.35;;
33491;SDS011;20010;51.488;7.232;2023-04-06T11:23:25;22.42;;;20.23;;
33491;SDS011;20010;51.488;7.232;2023-04-06T11:25:52;21.52;;;19.50;;
33491;SDS011;20010;51.488;7.232;2023-04-06T11:28:19;23.42;;;20.70;;
33491;SDS011;20010;51.488;7.232;2023-04-06T11:30:46;24.00;;;21.58;;
33491;SDS011;20010;51.488;7.232;2023-04-06T11:33:19;21.90;;;19.80;;
33491;SDS011;20010;51.488;7.232;2023-04-06T11:35:48;22.98;;;20.73;;
33491;SDS011;20010;51.488;7.232;2023-04-06T11:38:17;24.50;;;22.00;;
33491;SDS011;20010;51.488;7.232;2023-04-06T11:40:46;24.58;;;22.17;;
33491;SDS011;20010;51.488;7.232;2023-04-06T11:43:12;25.17;;;22.77;;
33491;SDS011;20010;51.488;7.232;2023-04-06T11:45:41;24.45;;;22.15;;
33491;SDS011;20010;51.488;7.232;2023-04-06T11:50:48;23.40;;;20.67;;
33491;SDS011;20010;51.488;7.232;2023-04-06T11:53:15;24.83;;;22.45;;
33491;SDS011;20010;51.488;7.232;2023-04-06T11:55:42;24.80;;;22.13;;
33491;SDS011;20010;51.488;7.232;2023-04-06T11:58:11;22.65;;;20.45;;
33491;SDS011;20010;51.488;7.232;2023-04-06T12:00:38;22.13;;;19.98;;
33491;SDS011;20010;51.488;7.232;2023-04-06T12:03:04;22.20;;;19.83;;
33491;SDS011;20010;51.488;7.232;2023-04-06T12:05:32;20.63;;;18.52;;
33491;SDS011;20010;51.488;7.232;2023-04-06T12:07:59;20.27;;;18.38;;
33491;SDS011;20010;51.488;7.232;2023-04-06T12:10:28;19.60;;;17.77;;
33491;SDS011;20010;51.488;7.232;2023-04-06T12:12:55;19.50;;;17.23;;
33491;SDS011;20010;51.488;7.232;2023-04-06T12:15:22;18.08;;;16.38;;
33491;SDS011;20010;51.488;7.232;2023-04-06T12:17:48;19.92;;;17.83;;
33491;SDS011;20010;51.488;7.232;2023-04-06T12:20:18;18.77;;;16.80;;
33491;SDS011;20010;51.488;7.232;2023-04-06T12:22:52;19.52;;;16.25;;
33491;SDS011;20010;51.488;7.232;2023-04-06T12:25:19;18.63;;;16.75;;
33491;SDS011;20010;51.488;7.232;2023-04-06T12:27:46;17.55;;;15.93;;
33491;SDS011;20010;51.488;7.232;2023-04-06T12:30:13;17.80;;;16.17;;
33491;SDS011;20010;51.488;7.232;2023-04-06T12:32:40;20.38;;;18.27;;
33491;SDS011;20010;51.488;7.232;2023-04-06T12:35:06;18.65;;;16.85;;
33491;SDS011;20010;51.488;7.232;2023-04-06T12:37:35;18.42;;;16.73;;
33491;SDS011;20010;51.488;7.232;2023-04-06T12:40:03;19.25;;;17.25;;
33491;SDS011;20010;51.488;7.232;2023-04-06T12:42:30;17.83;;;16.13;;
33491;SDS011;20010;51.488;7.232;2023-04-06T12:44:57;18.40;;;16.60;;
33491;SDS011;20010;51.488;7.232;2023-04-06T12:47:24;18.15;;;16.45;;
33491;SDS011;20010;51.488;7.232;2023-04-06T12:49:52;19.45;;;17.55;;
33491;SDS011;20010;51.488;7.232;2023-04-06T12:52:20;19.58;;;17.65;;
33491;SDS011;20010;51.488;7.232;2023-04-06T12:54:47;20.17;;;18.42;;
33491;SDS011;20010;51.488;7.232;2023-04-06T12:57:16;19.38;;;17.17;;
33491;SDS011;20010;51.488;7.232;2023-04-06T12:59:43;20.30;;;17.27;;
33491;SDS011;20010;51.488;7.232;2023-04-06T13:02:11;19.55;;;17.52;;
33491;SDS011;20010;51.488;7.232;2023-04-06T13:04:38;18.42;;;16.73;;
33491;SDS011;20010;51.488;7.232;2023-04-06T13:07:04;18.23;;;16.42;;
33491;SDS011;20010;51.488;7.232;2023-04-06T13:09:31;19.58;;;17.73;;
33491;SDS011;20010;51.488;7.232;2023-04-06T13:11:58;19.77;;;17.55;;
33491;SDS011;20010;51.488;7.232;2023-04-06T13:14:24;19.00;;;17.17;;
33491;SDS011;20010;51.488;7.232;2023-04-06T13:16:51;19.65;;;17.65;;
33491;SDS011;20010;51.488;7.232;2023-04-06T13:19:18;21.45;;;19.13;;
33491;SDS011;20010;51.488;7.232;2023-04-06T13:21:44;18.60;;;16.83;;
33491;SDS011;20010;51.488;7.232;2023-04-06T13:24:11;19.48;;;17.60;;
33491;SDS011;20010;51.488;7.232;2023-04-06T13:26:40;19.08;;;17.35;;
33491;SDS011;20010;51.488;7.232;2023-04-06T13:29:07;19.73;;;17.67;;
33491;SDS011;20010;51.488;7.232;2023-04-06T13:31:34;21.00;;;18.88;;
33491;SDS011;20010;51.488;7.232;2023-04-06T13:34:01;18.80;;;16.90;;
33491;SDS011;20010;51.488;7.232;2023-04-06T13:36:28;18.08;;;16.40;;
33491;SDS011;20010;51.488;7.232;2023-04-06T13:38:55;18.77;;;16.73;;
33491;SDS011;20010;51.488;7.232;2023-04-06T13:41:22;19.42;;;17.42;;
33491;SDS011;20010;51.488;7.232;2023-04-06T13:43:49;18.90;;;16.88;;
33491;SDS011;20010;51.488;7.232;2023-04-06T13:46:16;18.63;;;16.50;;
33491;SDS011;20010;51.488;7.232;2023-04-06T13:48:43;18.63;;;16.92;;
33491;SDS011;20010;51.488;7.232;2023-04-06T13:51:13;19.40;;;16.45;;
33491;SDS011;20010;51.488;7.232;2023-04-06T13:53:40;18.75;;;17.05;;
33491;SDS011;20010;51.488;7.232;2023-04-06T13:56:07;19.45;;;17.55;;
33491;SDS011;20010;51.488;7.232;2023-04-06T13:58:34;18.77;;;17.10;;
33491;SDS011;20010;51.488;7.232;2023-04-06T14:01:03;22.65;;;16.77;;
33491;SDS011;20010;51.488;7.232;2023-04-06T14:03:36;17.77;;;16.13;;
33491;SDS011;20010;51.488;7.232;2023-04-06T14:06:09;19.08;;;17.17;;
33491;SDS011;20010;51.488;7.232;2023-04-06T14:08:42;20.13;;;18.05;;
33491;SDS011;20010;51.488;7.232;2023-04-06T14:11:12;17.30;;;15.60;;
33491;SDS011;20010;51.488;7.232;2023-04-06T14:13:39;18.70;;;16.83;;
33491;SDS011;20010;51.488;7.232;2023-04-06T14:16:06;16.38;;;14.88;;
33491;SDS011;20010;51.488;7.232;2023-04-06T14:18:33;18.50;;;16.25;;
33491;SDS011;20010;51.488;7.232;2023-04-06T14:21:00;16.23;;;14.63;;
33491;SDS011;20010;51.488;7.232;2023-04-06T14:23:27;17.08;;;15.43;;
33491;SDS011;20010;51.488;7.232;2023-04-06T14:26:04;15.98;;;14.57;;
33491;SDS011;20010;51.488;7.232;2023-04-06T14:28:32;15.93;;;14.52;;
33491;SDS011;20010;51.488;7.232;2023-04-06T14:30:59;15.40;;;13.90;;
33491;SDS011;20010;51.488;7.232;2023-04-06T14:33:26;14.60;;;13.40;;
33491;SDS011;20010;51.488;7.232;2023-04-06T14:35:53;15.63;;;14.32;;
33491;SDS011;20010;51.488;7.232;2023-04-06T14:38:20;15.95;;;14.23;;
33491;SDS011;20010;51.488;7.232;2023-04-06T14:40:47;16.98;;;15.45;;
33491;SDS011;20010;51.488;7.232;2023-04-06T14:43:13;17.38;;;15.77;;
33491;SDS011;20010;51.488;7.232;2023-04-06T14:45:41;20.60;;;15.85;;